sensor_id;sensor_type;location;lat;lon;timestamp;P1;durP1;ratioP1;P2;durP2;ratioP2
22904;SDS011;11619;50.140;8.518;2023-04-06T00:00:33;3.90;;;2.97;;
22904;SDS011;11619;50.140;8.518;2023-04-06T00:03:00;5.88;;;3.60;;
22904;SDS011;11619;50.140;8.518;2023-04-06T00:05:27;3.78;;;3.05;;
22904;SDS011;11619;50.140;8.518;2023-04-06T00:07:59;4.57;;;2.85;;
22904;SDS011;11619;50.140;8.518;2023-04-06T00:10:26;5.28;;;3.35;;
22904;SDS011;11619;50.140;8.518;2023-04-06T00:12:52;3.63;;;3.17;;
22904;SDS011;11619;50.140;8.518;2023-04-06T00:15:20;3.13;;;2.83;;
22904;SDS011;11619;50.140;8.518;2023-04-06T00:17:47;3.97;;;3.40;;
22904;SDS011;11619;50.140;8.518;2023-04-06T00:20:13;4.38;;;3.63;;
22904;SDS011;11619;50.140;8.518;2023-04-06T00:22:40;5.70;;;3.13;;
22904;SDS011;11619;50.140;8.518;2023-04-06T00:25:08;4.78;;;3.10;;
22904;SDS011;11619;50.140;8.518;2023-04-06T00:27:36;5.05;;;3.20;;
22904;SDS011;11619;50.140;8.518;2023-04-06T00:30:06;4.82;;;3.10;;
22904;SDS011;11619;50.140;8.518;2023-04-06T00:32:34;3.65;;;3.15;;
22904;SDS011;11619;50.140;8.518;2023-04-06T00:35:03;4.38;;;3.38;;
22904;SDS011;11619;50.140;8.518;2023-04-06T00:37:30;4.45;;;3.30;;
22904;SDS011;11619;50.140;8.518;2023-04-06T00:39:56;4.22;;;3.67;;
22904;SDS011;11619;50.140;8.518;2023-04-06T00:42:23;3.22;;;2.92;;
22904;SDS011;11619;50.140;8.518;2023-04-06T00:44:53;3.20;;;2.75;;
22904;SDS011;11619;50.140;8.518;2023-04-06T00:47:23;3.05;;;2.72;;
22904;SDS011;11619;50.140;8.518;2023-04-06T00:49:51;4.22;;;3.10;;
22904;SDS011;11619;50.140;8.518;2023-04-06T00:52:18;4.97;;;3.13;;
22904;SDS011;11619;50.140;8.518;2023-04-06T00:54:45;4.22;;;3.20;;
22904;SDS011;11619;50.140;8.518;2023-04-06T00:57:12;3.55;;;3.00;;
22904;SDS011;11619;50.140;8.518;2023-04-06T00:59:39;3.20;;;2.95;;
22904;SDS011;11619;50.140;8.518;2023-04-06T01:02:06;3.20;;;2.95;;
22904;SDS011;11619;50.140;8.518;2023-04-06T01:04:33;4.75;;;3.50;;
22904;SDS011;11619;50.140;8.518;2023-04-06T01:07:02;4.72;;;3.13;;
22904;SDS011;11619;50.140;8.518;2023-04-06T01:09:28;5.32;;;3.63;;
22904;SDS011;11619;50.140;8.518;2023-04-06T01:11:58;4.60;;;3.28;;
22904;SDS011;11619;50.140;8.518;2023-04-06T01:14:25;4.75;;;3.25;;
22904;SDS011;11619;50.140;8.518;2023-04-06T01:16:51;5.20;;;3.50;;
22904;SDS011;11619;50.140;8.518;2023-04-06T01:19:18;5.90;;;3.30;;
22904;SDS011;11619;50.140;8.518;2023-04-06T01:21:46;3.83;;;3.42;;
22904;SDS011;11619;50.140;8.518;2023-04-06T01:24:15;3.75;;;3.33;;
22904;SDS011;11619;50.140;8.518;2023-04-06T01:26:42;4.07;;;3.25;;
22904;SDS011;11619;50.140;8.518;2023-04-06T01:29:09;4.45;;;3.78;;
22904;SDS011;11619;50.140;8.518;2023-04-06T01:31:35;3.97;;;3.55;;
22904;SDS011;11619;50.140;8.518;2023-04-06T01:34:02;4.38;;;3.17;;
22904;SDS011;11619;50.140;8.518;2023-04-06T01:36:28;4.68;;;3.53;;
22904;SDS011;11619;50.140;8.518;2023-04-06T01:38:55;4.47;;;3.00;;
22904;SDS011;11619;50.140;8.518;2023-04-06T01:41:22;4.22;;;3.83;;
22904;SDS011;11619;50.140;8.518;2023-04-06T01:43:48;4.50;;;4.05;;
22904;SDS011;11619;50.140;8.518;2023-04-06T01:46:15;6.07;;;3.78;;
22904;SDS011;11619;50.140;8.518;2023-04-06T01:48:42;6.32;;;4.28;;
22904;SDS011;11619;50.140;8.518;2023-04-06T01:51:08;5.80;;;4.20;;
22904;SDS011;11619;50.140;8.518;2023-04-06T01:53:35;6.57;;;4.22;;
22904;SDS011;11619;50.140;8.518;2023-04-06T01:56:01;5.03;;;4.25;;
22904;SDS011;11619;50.140;8.518;2023-04-06T01:58:28;6.28;;;4.60;;
22904;SDS011;11619;50.140;8.518;2023-04-06T02:00:54;5.13;;;4.35;;
22904;SDS011;11619;50.140;8.518;2023-04-06T02:03:20;5.13;;;4.05;;
22904;SDS011;11619;50.140;8.518;2023-04-06T02:05:47;6.68;;;4.20;;
22904;SDS011;11619;50.140;8.518;2023-04-06T02:08:14;5.28;;;4.32;;
22904;SDS011;11619;50.140;8.518;2023-04-06T02:10:41;6.30;;;4.10;;
22904;SDS011;11619;50.140;8.518;2023-04-06T02:13:07;4.15;;;3.75;;
22904;SDS011;11619;50.140;8.518;2023-04-06T02:15:34;6.00;;;4.00;;
22904;SDS011;11619;50.140;8.518;2023-04-06T02:18:00;5.57;;;4.22;;
22904;SDS011;11619;50.140;8.518;2023-04-06T02:20:27;4.93;;;4.07;;
22904;SDS011;11619;50.140;8.518;2023-04-06T02:22:56;5.30;;;4.13;;
22904;SDS011;11619;50.140;8.518;2023-04-06T02:25:24;5.35;;;4.15;;
22904;SDS011;11619;50.140;8.518;2023-04-06T02:27:51;5.80;;;4.68;;
22904;SDS011;11619;50.140;8.518;2023-04-06T02:30:17;5.65;;;4.32;;
22904;SDS011;11619;50.140;8.518;2023-04-06T02:32:43;4.90;;;3.95;;
22904;SDS011;11619;50.140;8.518;2023-04-06T02:35:10;4.85;;;4.13;;
22904;SDS011;11619;50.140;8.518;2023-04-06T02:37:36;5.13;;;4.20;;
22904;SDS011;11619;50.140;8.518;2023-04-06T02:40:03;5.22;;;4.57;;
22904;SDS011;11619;50.140;8.518;2023-04-06T02:42:30;7.78;;;4.80;;
22904;SDS011;11619;50.140;8.518;2023-04-06T02:44:56;7.25;;;4.50;;
22904;SDS011;11619;50.140;8.518;2023-04-06T02:47:23;6.32;;;5.03;;
22904;SDS011;11619;50.140;8.518;2023-04-06T02:49:49;6.20;;;4.88;;
22904;SDS011;11619;50.140;8.518;2023-04-06T02:52:16;5.40;;;4.85;;
22904;SDS011;11619;50.140;8.518;2023-04-06T02:54:43;6.82;;;4.97;;
22904;SDS011;11619;50.140;8.518;2023-04-06T02:57:10;6.00;;;4.70;;
22904;SDS011;11619;50.140;8.518;2023-04-06T02:59:36;6.53;;;5.00;;
22904;SDS011;11619;50.140;8.518;2023-04-06T03:02:03;6.30;;;4.88;;
22904;SDS011;11619;50.140;8.518;2023-04-06T03:04:29;6.05;;;4.85;;
22904;SDS011;11619;50.140;8.518;2023-04-06T03:06:56;7.30;;;5.50;;
22904;SDS011;11619;50.140;8.518;2023-04-06T03:09:25;9.02;;;6.05;;
22904;SDS011;11619;50.140;8.518;2023-04-06T03:11:52;7.13;;;4.75;;
22904;SDS011;11619;50.140;8.518;2023-04-06T03:14:18;5.80;;;5.22;;
22904;SDS011;11619;50.140;8.518;2023-04-06T03:16:48;9.05;;;5.40;;
22904;SDS011;11619;50.140;8.518;2023-04-06T03:19:14;7.55;;;4.95;;
22904;SDS011;11619;50.140;8.518;2023-04-06T03:21:41;5.80;;;5.00;;
22904;SDS011;11619;50.140;8.518;2023-04-06T03:24:08;7.00;;;5.38;;
22904;SDS011;11619;50.140;8.518;2023-04-06T03:26:34;5.90;;;5.30;;
22904;SDS011;11619;50.140;8.518;2023-04-06T03:29:01;6.95;;;5.13;;
22904;SDS011;11619;50.140;8.518;2023-04-06T03:31:27;6.30;;;5.00;;
22904;SDS011;11619;50.140;8.518;2023-04-06T03:33:54;6.38;;;5.72;;
22904;SDS011;11619;50.140;8.518;2023-04-06T03:36:20;7.55;;;5.50;;
22904;SDS011;11619;50.140;8.518;2023-04-06T03:38:47;6.93;;;5.63;;
22904;SDS011;11619;50.140;8.518;2023-04-06T03:41:13;7.28;;;5.68;;
22904;SDS011;11619;50.140;8.518;2023-04-06T03:43:40;7.05;;;5.45;;
22904;SDS011;11619;50.140;8.518;2023-04-06T03:46:06;7.70;;;6.07;;
22904;SDS011;11619;50.140;8.518;2023-04-06T03:48:33;6.75;;;6.05;;
22904;SDS011;11619;50.140;8.518;2023-04-06T03:50:59;6.97;;;5.35;;
22904;SDS011;11619;50.140;8.518;2023-04-06T03:53:26;7.80;;;5.68;;
22904;SDS011;11619;50.140;8.518;2023-04-06T03:55:52;6.65;;;4.97;;
22904;SDS011;11619;50.140;8.518;2023-04-06T03:58:19;7.40;;;5.30;;
22904;SDS011;11619;50.140;8.518;2023-04-06T04:00:46;7.45;;;5.30;;
22904;SDS011;11619;50.140;8.518;2023-04-06T04:03:12;9.35;;;5.45;;
22904;SDS011;11619;50.140;8.518;2023-04-06T04:05:39;11.38;;;6.68;;
22904;SDS011;11619;50.140;8.518;2023-04-06T04:08:05;17.52;;;10.68;;
22904;SDS011;11619;50.140;8.518;2023-04-06T04:10:31;29.27;;;15.77;;
22904;SDS011;11619;50.140;8.518;2023-04-06T04:12:58;15.90;;;13.02;;
22904;SDS011;11619;50.140;8.518;2023-04-06T04:15:24;13.25;;;10.98;;
22904;SDS011;11619;50.140;8.518;2023-04-06T04:17:51;9.15;;;7.25;;
22904;SDS011;11619;50.140;8.518;2023-04-06T04:20:17;9.60;;;6.43;;
22904;SDS011;11619;50.140;8.518;2023-04-06T04:22:44;6.65;;;6.03;;
22904;SDS011;11619;50.140;8.518;2023-04-06T04:25:10;11.27;;;7.55;;
22904;SDS011;11619;50.140;8.518;2023-04-06T04:27:37;10.25;;;7.47;;
22904;SDS011;11619;50.140;8.518;2023-04-06T04:30:03;9.32;;;6.80;;
22904;SDS011;11619;50.140;8.518;2023-04-06T04:32:30;8.98;;;5.95;;
22904;SDS011;11619;50.140;8.518;2023-04-06T04:34:57;8.20;;;6.38;;
22904;SDS011;11619;50.140;8.518;2023-04-06T04:37:23;8.02;;;6.90;;
22904;SDS011;11619;50.140;8.518;2023-04-06T04:39:50;7.88;;;6.15;;
22904;SDS011;11619;50.140;8.518;2023-04-06T04:42:16;11.15;;;7.00;;
22904;SDS011;11619;50.140;8.518;2023-04-06T04:44:43;8.02;;;7.22;;
22904;SDS011;11619;50.140;8.518;2023-04-06T04:47:09;8.48;;;6.90;;
22904;SDS011;11619;50.140;8.518;2023-04-06T04:49:36;10.13;;;7.30;;
22904;SDS011;11619;50.140;8.518;2023-04-06T04:52:02;8.57;;;6.90;;
22904;SDS011;11619;50.140;8.518;2023-04-06T04:54:28;8.32;;;7.00;;
22904;SDS011;11619;50.140;8.518;2023-04-06T04:56:55;8.52;;;6.50;;
22904;SDS011;11619;50.140;8.518;2023-04-06T04:59:21;10.77;;;7.18;;
22904;SDS011;11619;50.140;8.518;2023-04-06T05:01:48;9.07;;;7.68;;
22904;SDS011;11619;50.140;8.518;2023-04-06T05:04:20;9.07;;;6.25;;
22904;SDS011;11619;50.140;8.518;2023-04-06T05:06:47;7.00;;;6.30;;
22904;SDS011;11619;50.140;8.518;2023-04-06T05:09:14;8.15;;;5.90;;
22904;SDS011;11619;50.140;8.518;2023-04-06T05:11:40;6.55;;;5.90;;
22904;SDS011;11619;50.140;8.518;2023-04-06T05:14:07;10.10;;;7.05;;
22904;SDS011;11619;50.140;8.518;2023-04-06T05:16:33;8.20;;;6.63;;
22904;SDS011;11619;50.140;8.518;2023-04-06T05:19:00;9.70;;;6.60;;
22904;SDS011;11619;50.140;8.518;2023-04-06T05:21:26;9.15;;;7.10;;
22904;SDS011;11619;50.140;8.518;2023-04-06T05:23:54;8.93;;;6.72;;
22904;SDS011;11619;50.140;8.518;2023-04-06T05:26:20;11.68;;;6.90;;
22904;SDS011;11619;50.140;8.518;2023-04-06T05:28:46;11.02;;;7.95;;
22904;SDS011;11619;50.140;8.518;2023-04-06T05:31:13;14.82;;;7.78;;
22904;SDS011;11619;50.140;8.518;2023-04-06T05:33:40;8.45;;;6.82;;
22904;SDS011;11619;50.140;8.518;2023-04-06T05:36:07;10.70;;;7.93;;
22904;SDS011;11619;50.140;8.518;2023-04-06T05:38:34;12.57;;;8.38;;
22904;SDS011;11619;50.140;8.518;2023-04-06T05:41:00;12.52;;;8.48;;
22904;SDS011;11619;50.140;8.518;2023-04-06T05:43:26;14.20;;;8.23;;
22904;SDS011;11619;50.140;8.518;2023-04-06T05:45:53;38.88;;;16.70;;
22904;SDS011;11619;50.140;8.518;2023-04-06T05:48:19;40.45;;;19.52;;
22904;SDS011;11619;50.140;8.518;2023-04-06T05:50:49;17.92;;;14.73;;
22904;SDS011;11619;50.140;8.518;2023-04-06T05:53:19;16.00;;;10.52;;
22904;SDS011;11619;50.140;8.518;2023-04-06T05:55:47;10.10;;;8.18;;
22904;SDS011;11619;50.140;8.518;2023-04-06T05:58:13;6.90;;;5.90;;
22904;SDS011;11619;50.140;8.518;2023-04-06T06:00:40;11.40;;;8.45;;
22904;SDS011;11619;50.140;8.518;2023-04-06T06:03:08;10.85;;;7.53;;
22904;SDS011;11619;50.140;8.518;2023-04-06T06:05:35;11.52;;;6.97;;
22904;SDS011;11619;50.140;8.518;2023-04-06T06:08:02;11.30;;;6.72;;
22904;SDS011;11619;50.140;8.518;2023-04-06T06:10:28;8.73;;;7.40;;
22904;SDS011;11619;50.140;8.518;2023-04-06T06:12:55;8.95;;;7.63;;
22904;SDS011;11619;50.140;8.518;2023-04-06T06:15:21;12.38;;;7.63;;
22904;SDS011;11619;50.140;8.518;2023-04-06T06:17:48;10.73;;;7.45;;
22904;SDS011;11619;50.140;8.518;2023-04-06T06:20:14;10.23;;;8.15;;
22904;SDS011;11619;50.140;8.518;2023-04-06T06:22:41;9.38;;;7.75;;
22904;SDS011;11619;50.140;8.518;2023-04-06T06:25:07;12.57;;;8.93;;
22904;SDS011;11619;50.140;8.518;2023-04-06T06:27:34;14.45;;;9.27;;
22904;SDS011;11619;50.140;8.518;2023-04-06T06:30:01;9.40;;;8.38;;
22904;SDS011;11619;50.140;8.518;2023-04-06T06:32:27;12.15;;;9.30;;
22904;SDS011;11619;50.140;8.518;2023-04-06T06:34:54;13.23;;;9.85;;
22904;SDS011;11619;50.140;8.518;2023-04-06T06:37:20;12.70;;;9.80;;
22904;SDS011;11619;50.140;8.518;2023-04-06T06:39:47;10.73;;;8.88;;
22904;SDS011;11619;50.140;8.518;2023-04-06T06:42:13;11.48;;;9.20;;
22904;SDS011;11619;50.140;8.518;2023-04-06T06:44:40;12.25;;;9.82;;
22904;SDS011;11619;50.140;8.518;2023-04-06T06:47:06;17.13;;;10.88;;
22904;SDS011;11619;50.140;8.518;2023-04-06T06:49:33;14.82;;;9.73;;
22904;SDS011;11619;50.140;8.518;2023-04-06T06:51:59;12.57;;;9.23;;
22904;SDS011;11619;50.140;8.518;2023-04-06T06:54:25;15.63;;;9.45;;
22904;SDS011;11619;50.140;8.518;2023-04-06T06:56:52;10.13;;;8.90;;
22904;SDS011;11619;50.140;8.518;2023-04-06T06:59:20;11.95;;;9.23;;
22904;SDS011;11619;50.140;8.518;2023-04-06T07:01:46;9.80;;;8.80;;
22904;SDS011;11619;50.140;8.518;2023-04-06T07:04:13;11.25;;;9.25;;
22904;SDS011;11619;50.140;8.518;2023-04-06T07:06:39;11.75;;;9.65;;
22904;SDS011;11619;50.140;8.518;2023-04-06T07:09:06;14.25;;;10.00;;
22904;SDS011;11619;50.140;8.518;2023-04-06T07:11:33;12.88;;;9.30;;
22904;SDS011;11619;50.140;8.518;2023-04-06T07:13:59;16.00;;;9.27;;
22904;SDS011;11619;50.140;8.518;2023-04-06T07:16:25;10.50;;;9.20;;
22904;SDS011;11619;50.140;8.518;2023-04-06T07:18:52;13.25;;;9.45;;
22904;SDS011;11619;50.140;8.518;2023-04-06T07:21:18;11.23;;;9.18;;
22904;SDS011;11619;50.140;8.518;2023-04-06T07:23:45;14.65;;;9.98;;
22904;SDS011;11619;50.140;8.518;2023-04-06T07:26:14;11.18;;;9.65;;
22904;SDS011;11619;50.140;8.518;2023-04-06T07:28:40;12.63;;;9.60;;
22904;SDS011;11619;50.140;8.518;2023-04-06T07:31:07;13.95;;;10.27;;
22904;SDS011;11619;50.140;8.518;2023-04-06T07:33:33;15.70;;;10.20;;
22904;SDS011;11619;50.140;8.518;2023-04-06T07:36:02;14.70;;;10.38;;
22904;SDS011;11619;50.140;8.518;2023-04-06T07:38:29;14.13;;;11.40;;
22904;SDS011;11619;50.140;8.518;2023-04-06T07:40:55;16.67;;;11.27;;
22904;SDS011;11619;50.140;8.518;2023-04-06T07:43:22;12.88;;;10.50;;
22904;SDS011;11619;50.140;8.518;2023-04-06T07:45:48;13.05;;;10.25;;
22904;SDS011;11619;50.140;8.518;2023-04-06T07:48:15;12.63;;;10.15;;
22904;SDS011;11619;50.140;8.518;2023-04-06T07:50:42;13.68;;;10.23;;
22904;SDS011;11619;50.140;8.518;2023-04-06T07:53:08;19.52;;;11.00;;
22904;SDS011;11619;50.140;8.518;2023-04-06T07:55:35;13.82;;;10.52;;
22904;SDS011;11619;50.140;8.518;2023-04-06T07:58:01;14.45;;;11.27;;
22904;SDS011;11619;50.140;8.518;2023-04-06T08:00:28;15.60;;;11.45;;
22904;SDS011;11619;50.140;8.518;2023-04-06T08:02:55;15.32;;;11.73;;
22904;SDS011;11619;50.140;8.518;2023-04-06T08:05:22;17.50;;;11.73;;
22904;SDS011;11619;50.140;8.518;2023-04-06T08:07:48;13.73;;;9.82;;
22904;SDS011;11619;50.140;8.518;2023-04-06T08:10:15;14.52;;;10.85;;
22904;SDS011;11619;50.140;8.518;2023-04-06T08:12:41;15.63;;;11.25;;
22904;SDS011;11619;50.140;8.518;2023-04-06T08:15:08;12.98;;;10.63;;
22904;SDS011;11619;50.140;8.518;2023-04-06T08:17:34;16.58;;;10.50;;
22904;SDS011;11619;50.140;8.518;2023-04-06T08:20:01;12.15;;;10.43;;
22904;SDS011;11619;50.140;8.518;2023-04-06T08:22:29;14.70;;;10.82;;
22904;SDS011;11619;50.140;8.518;2023-04-06T08:24:56;17.42;;;11.20;;
22904;SDS011;11619;50.140;8.518;2023-04-06T08:27:22;15.13;;;11.45;;
22904;SDS011;11619;50.140;8.518;2023-04-06T08:29:49;11.48;;;10.15;;
22904;SDS011;11619;50.140;8.518;2023-04-06T08:32:17;12.75;;;10.80;;
22904;SDS011;11619;50.140;8.518;2023-04-06T08:34:44;11.63;;;10.27;;
22904;SDS011;11619;50.140;8.518;2023-04-06T08:37:10;12.02;;;10.70;;
22904;SDS011;11619;50.140;8.518;2023-04-06T08:39:37;14.75;;;10.55;;
22904;SDS011;11619;50.140;8.518;2023-04-06T08:42:03;22.95;;;11.70;;
22904;SDS011;11619;50.140;8.518;2023-04-06T08:44:31;17.05;;;10.32;;
22904;SDS011;11619;50.140;8.518;2023-04-06T08:46:58;15.00;;;11.30;;
22904;SDS011;11619;50.140;8.518;2023-04-06T08:49:25;15.23;;;11.10;;
22904;SDS011;11619;50.140;8.518;2023-04-06T08:51:52;17.88;;;11.15;;
22904;SDS011;11619;50.140;8.518;2023-04-06T08:54:19;11.80;;;10.30;;
22904;SDS011;11619;50.140;8.518;2023-04-06T08:56:45;14.23;;;11.30;;
22904;SDS011;11619;50.140;8.518;2023-04-06T08:59:12;14.35;;;11.73;;
22904;SDS011;11619;50.140;8.518;2023-04-06T09:01:39;14.00;;;11.38;;
22904;SDS011;11619;50.140;8.518;2023-04-06T09:04:07;13.43;;;11.20;;
22904;SDS011;11619;50.140;8.518;2023-04-06T09:06:39;13.48;;;11.55;;
22904;SDS011;11619;50.140;8.518;2023-04-06T09:09:07;12.20;;;10.77;;
22904;SDS011;11619;50.140;8.518;2023-04-06T09:11:46;15.82;;;10.73;;
22904;SDS011;11619;50.140;8.518;2023-04-06T09:14:13;13.25;;;10.88;;
22904;SDS011;11619;50.140;8.518;2023-04-06T09:16:41;15.13;;;10.75;;
22904;SDS011;11619;50.140;8.518;2023-04-06T09:19:09;16.38;;;11.20;;
22904;SDS011;11619;50.140;8.518;2023-04-06T09:21:36;12.38;;;11.07;;
22904;SDS011;11619;50.140;8.518;2023-04-06T09:24:03;15.10;;;11.68;;
22904;SDS011;11619;50.140;8.518;2023-04-06T09:26:30;13.60;;;11.18;;
22904;SDS011;11619;50.140;8.518;2023-04-06T09:28:59;13.13;;;10.75;;
22904;SDS011;11619;50.140;8.518;2023-04-06T09:31:30;13.50;;;11.18;;
22904;SDS011;11619;50.140;8.518;2023-04-06T09:33:59;14.27;;;11.90;;
22904;SDS011;11619;50.140;8.518;2023-04-06T09:36:33;12.48;;;11.18;;
22904;SDS011;11619;50.140;8.518;2023-04-06T09:39:04;14.93;;;11.32;;
22904;SDS011;11619;50.140;8.518;2023-04-06T09:41:31;13.25;;;10.65;;
22904;SDS011;11619;50.140;8.518;2023-04-06T09:44:03;12.98;;;11.18;;
22904;SDS011;11619;50.140;8.518;2023-04-06T09:46:33;15.07;;;12.43;;
22904;SDS011;11619;50.140;8.518;2023-04-06T09:49:20;14.57;;;11.60;;
22904;SDS011;11619;50.140;8.518;2023-04-06T09:51:49;13.73;;;10.20;;
22904;SDS011;11619;50.140;8.518;2023-04-06T09:54:23;12.98;;;11.10;;
22904;SDS011;11619;50.140;8.518;2023-04-06T09:57:11;15.68;;;10.88;;
22904;SDS011;11619;50.140;8.518;2023-04-06T10:08:13;13.35;;;10.75;;
22904;SDS011;11619;50.140;8.518;2023-04-06T10:10:39;17.52;;;11.45;;
22904;SDS011;11619;50.140;8.518;2023-04-06T10:13:06;14.57;;;11.32;;
22904;SDS011;11619;50.140;8.518;2023-04-06T10:15:33;14.20;;;10.55;;
22904;SDS011;11619;50.140;8.518;2023-04-06T10:18:00;13.32;;;10.38;;
22904;SDS011;11619;50.140;8.518;2023-04-06T10:23:24;13.85;;;10.00;;
22904;SDS011;11619;50.140;8.518;2023-04-06T10:25:56;16.25;;;11.50;;
22904;SDS011;11619;50.140;8.518;2023-04-06T10:28:24;12.25;;;10.40;;
22904;SDS011;11619;50.140;8.518;2023-04-06T10:30:58;14.60;;;10.43;;
22904;SDS011;11619;50.140;8.518;2023-04-06T10:33:25;13.85;;;10.68;;
22904;SDS011;11619;50.140;8.518;2023-04-06T10:35:51;13.70;;;11.10;;
22904;SDS011;11619;50.140;8.518;2023-04-06T10:38:18;13.50;;;10.43;;
22904;SDS011;11619;50.140;8.518;2023-04-06T10:40:47;14.07;;;10.65;;
22904;SDS011;11619;50.140;8.518;2023-04-06T10:43:17;17.30;;;11.63;;
22904;SDS011;11619;50.140;8.518;2023-04-06T10:45:45;17.38;;;11.80;;
22904;SDS011;11619;50.140;8.518;2023-04-06T10:48:23;15.10;;;11.23;;
22904;SDS011;11619;50.140;8.518;2023-04-06T10:50:51;16.20;;;11.40;;
22904;SDS011;11619;50.140;8.518;2023-04-06T10:53:21;15.23;;;11.70;;
22904;SDS011;11619;50.140;8.518;2023-04-06T10:55:53;17.60;;;12.25;;
22904;SDS011;11619;50.140;8.518;2023-04-06T10:58:24;14.15;;;11.77;;
22904;SDS011;11619;50.140;8.518;2023-04-06T11:00:51;16.65;;;11.15;;
22904;SDS011;11619;50.140;8.518;2023-04-06T11:03:17;13.50;;;11.25;;
22904;SDS011;11619;50.140;8.518;2023-04-06T11:05:45;18.65;;;12.50;;
22904;SDS011;11619;50.140;8.518;2023-04-06T11:08:32;15.95;;;12.50;;
22904;SDS011;11619;50.140;8.518;2023-04-06T11:11:08;14.63;;;11.70;;
22904;SDS011;11619;50.140;8.518;2023-04-06T11:13:39;14.55;;;11.68;;
22904;SDS011;11619;50.140;8.518;2023-04-06T11:16:13;16.25;;;11.85;;
22904;SDS011;11619;50.140;8.518;2023-04-06T11:18:50;17.70;;;12.75;;
22904;SDS011;11619;50.140;8.518;2023-04-06T11:21:38;15.98;;;12.68;;
22904;SDS011;11619;50.140;8.518;2023-04-06T11:24:21;16.55;;;12.20;;
22904;SDS011;11619;50.140;8.518;2023-04-06T11:29:20;15.95;;;10.30;;
22904;SDS011;11619;50.140;8.518;2023-04-06T11:31:49;13.07;;;10.32;;
22904;SDS011;11619;50.140;8.518;2023-04-06T11:34:20;13.95;;;11.10;;
22904;SDS011;11619;50.140;8.518;2023-04-06T11:36:49;14.18;;;11.43;;
22904;SDS011;11619;50.140;8.518;2023-04-06T11:39:21;18.60;;;11.15;;
22904;SDS011;11619;50.140;8.518;2023-04-06T11:41:53;13.52;;;10.20;;
22904;SDS011;11619;50.140;8.518;2023-04-06T11:44:37;13.65;;;11.13;;
22904;SDS011;11619;50.140;8.518;2023-04-06T11:47:16;13.55;;;11.05;;
22904;SDS011;11619;50.140;8.518;2023-04-06T11:49:43;15.57;;;11.32;;
22904;SDS011;11619;50.140;8.518;2023-04-06T11:54:47;18.65;;;11.48;;
22904;SDS011;11619;50.140;8.518;2023-04-06T11:57:15;17.17;;;12.15;;
22904;SDS011;11619;50.140;8.518;2023-04-06T11:59:42;16.83;;;11.32;;
22904;SDS011;11619;50.140;8.518;2023-04-06T12:02:09;15.30;;;11.50;;
22904;SDS011;11619;50.140;8.518;2023-04-06T12:04:36;14.02;;;10.88;;
22904;SDS011;11619;50.140;8.518;2023-04-06T12:07:03;14.93;;;10.73;;
22904;SDS011;11619;50.140;8.518;2023-04-06T12:09:30;17.02;;;12.00;;
22904;SDS011;11619;50.140;8.518;2023-04-06T12:11:57;17.02;;;11.68;;
22904;SDS011;11619;50.140;8.518;2023-04-06T12:14:23;15.73;;;11.85;;
22904;SDS011;11619;50.140;8.518;2023-04-06T12:16:50;15.23;;;11.48;;
22904;SDS011;11619;50.140;8.518;2023-04-06T12:19:16;17.17;;;11.98;;
22904;SDS011;11619;50.140;8.518;2023-04-06T12:21:43;13.23;;;11.02;;
22904;SDS011;11619;50.140;8.518;2023-04-06T12:24:09;14.95;;;11.57;;
22904;SDS011;11619;50.140;8.518;2023-04-06T12:26:36;17.73;;;11.93;;
22904;SDS011;11619;50.140;8.518;2023-04-06T12:29:03;13.85;;;10.80;;
22904;SDS011;11619;50.140;8.518;2023-04-06T12:31:35;12.30;;;10.63;;
22904;SDS011;11619;50.140;8.518;2023-04-06T12:34:02;19.42;;;11.43;;
22904;SDS011;11619;50.140;8.518;2023-04-06T12:36:29;14.13;;;10.68;;
22904;SDS011;11619;50.140;8.518;2023-04-06T12:38:57;17.20;;;11.10;;
22904;SDS011;11619;50.140;8.518;2023-04-06T12:41:23;13.57;;;10.45;;
22904;SDS011;11619;50.140;8.518;2023-04-06T12:43:52;14.43;;;10.82;;
22904;SDS011;11619;50.140;8.518;2023-04-06T12:46:18;15.40;;;10.57;;
22904;SDS011;11619;50.140;8.518;2023-04-06T12:48:46;18.00;;;11.45;;
22904;SDS011;11619;50.140;8.518;2023-04-06T12:51:12;13.80;;;11.30;;
22904;SDS011;11619;50.140;8.518;2023-04-06T12:53:39;12.52;;;10.63;;
22904;SDS011;11619;50.140;8.518;2023-04-06T12:56:15;14.25;;;10.45;;
22904;SDS011;11619;50.140;8.518;2023-04-06T12:58:43;14.10;;;10.18;;
22904;SDS011;11619;50.140;8.518;2023-04-06T13:01:11;12.90;;;10.25;;
22904;SDS011;11619;50.140;8.518;2023-04-06T13:03:40;12.60;;;10.23;;
22904;SDS011;11619;50.140;8.518;2023-04-06T13:06:07;11.50;;;9.63;;
22904;SDS011;11619;50.140;8.518;2023-04-06T13:08:34;11.45;;;9.85;;
22904;SDS011;11619;50.140;8.518;2023-04-06T13:11:03;11.95;;;10.23;;
22904;SDS011;11619;50.140;8.518;2023-04-06T13:13:30;11.55;;;9.98;;
22904;SDS011;11619;50.140;8.518;2023-04-06T13:16:03;12.30;;;10.02;;
22904;SDS011;11619;50.140;8.518;2023-04-06T13:18:31;12.73;;;10.10;;
22904;SDS011;11619;50.140;8.518;2023-04-06T13:20:58;12.93;;;9.75;;
22904;SDS011;11619;50.140;8.518;2023-04-06T13:23:25;14.55;;;10.57;;
22904;SDS011;11619;50.140;8.518;2023-04-06T13:25:56;13.05;;;9.75;;
22904;SDS011;11619;50.140;8.518;2023-04-06T13:28:30;11.45;;;9.57;;
22904;SDS011;11619;50.140;8.518;2023-04-06T13:30:58;11.45;;;10.25;;
22904;SDS011;11619;50.140;8.518;2023-04-06T13:33:26;14.07;;;11.05;;
22904;SDS011;11619;50.140;8.518;2023-04-06T13:35:53;12.40;;;10.13;;
22904;SDS011;11619;50.140;8.518;2023-04-06T13:38:19;11.18;;;9.20;;
22904;SDS011;11619;50.140;8.518;2023-04-06T13:40:46;14.98;;;11.25;;
22904;SDS011;11619;50.140;8.518;2023-04-06T13:43:12;12.23;;;10.38;;
22904;SDS011;11619;50.140;8.518;2023-04-06T13:45:39;12.73;;;10.55;;
22904;SDS011;11619;50.140;8.518;2023-04-06T13:48:06;10.57;;;9.23;;
22904;SDS011;11619;50.140;8.518;2023-04-06T13:50:32;14.45;;;9.88;;
22904;SDS011;11619;50.140;8.518;2023-04-06T13:52:59;11.90;;;8.90;;
22904;SDS011;11619;50.140;8.518;2023-04-06T13:55:26;11.30;;;9.07;;
22904;SDS011;11619;50.140;8.518;2023-04-06T13:57:52;15.43;;;10.13;;
22904;SDS011;11619;50.140;8.518;2023-04-06T14:00:19;12.70;;;9.77;;
22904;SDS011;11619;50.140;8.518;2023-04-06T14:02:45;11.23;;;9.80;;
22904;SDS011;11619;50.140;8.518;2023-04-06T14:05:12;11.18;;;9.80;;
22904;SDS011;11619;50.140;8.518;2023-04-06T14:07:39;12.63;;;9.43;;
22904;SDS011;11619;50.140;8.518;2023-04-06T14:10:06;11.02;;;8.77;;
22904;SDS011;11619;50.140;8.518;2023-04-06T14:12:40;10.33;;;9.07;;
22904;SDS011;11619;50.140;8.518;2023-04-06T14:15:08;10.55;;;8.70;;
22904;SDS011;11619;50.140;8.518;2023-04-06T14:17:35;15.05;;;9.32;;
22904;SDS011;11619;50.140;8.518;2023-04-06T14:20:02;13.57;;;9.07;;
22904;SDS011;11619;50.140;8.518;2023-04-06T14:22:28;9.88;;;8.70;;
22904;SDS011;11619;50.140;8.518;2023-04-06T14:24:55;10.77;;;8.10;;
22904;SDS011;11619;50.140;8.518;2023-04-06T14:27:22;9.98;;;8.30;;
22904;SDS011;11619;50.140;8.518;2023-04-06T14:29:49;10.80;;;8.60;;
22904;SDS011;11619;50.140;8.518;2023-04-06T14:32:16;10.40;;;8.13;;
22904;SDS011;11619;50.140;8.518;2023-04-06T14:34:43;9.32;;;7.45;;
22904;SDS011;11619;50.140;8.518;2023-04-06T14:37:09;13.52;;;8.52;;
22904;SDS011;11619;50.140;8.518;2023-04-06T14:39:37;9.55;;;7.80;;
22904;SDS011;11619;50.140;8.518;2023-04-06T14:42:03;9.63;;;7.97;;
22904;SDS011;11619;50.140;8.518;2023-04-06T14:44:32;10.05;;;7.78;;
22904;SDS011;11619;50.140;8.518;2023-04-06T14:46:59;10.77;;;7.90;;
22904;SDS011;11619;50.140;8.518;2023-04-06T14:49:25;10.07;;;8.50;;
22904;SDS011;11619;50.140;8.518;2023-04-06T14:51:52;11.60;;;8.77;;